Time;durP1;ratioP1;P1;durP2;ratioP2;P2;SDS_P1;SDS_P2;PMS_P1;PMS_P2;Temp;Humidity;BMP_temperature;BMP_pressure;BME280_temperature;BME280_humidity;BME280_pressure;Samples;Min_cycle;Max_cycle;Signal;HPM_P1;HPM_P2
2022/05/14 00:01:23;;;;;;;0.50;0.50;;;;;;;;;;6128780;23;20060;-79
2022/05/14 00:03:48;;;;;;;0.38;0.38;;;;;;;;;;6127274;23;20002;-79
2022/05/14 00:06:22;;;;;;;5.43;1.02;;;;;;;;;;6128931;23;20018;-79
2022/05/14 00:08:50;;;;;;;0.38;0.38;;;;;;;;;;6128005;23;20016;-77
2022/05/14 00:14:03;;;;;;;1.85;0.85;;;;;;;;;;6127575;23;20080;-78
2022/05/14 00:16:31;;;;;;;2.00;1.02;;;;;;;;;;6127736;23;20084;-77
2022/05/14 00:18:56;;;;;;;2.85;1.15;;;;;;;;;;6128709;23;20393;-80
2022/05/14 00:21:22;;;;;;;0.73;0.68;;;;;;;;;;6129183;23;19998;-80
2022/05/14 00:23:50;;;;;;;3.92;2.03;;;;;;;;;;6128881;23;20043;-79
2022/05/14 00:26:17;;;;;;;0.50;0.50;;;;;;;;;;6128818;23;20019;-80
2022/05/14 00:28:45;;;;;;;3.30;1.90;;;;;;;;;;6127661;23;20017;-79
2022/05/14 00:31:11;;;;;;;0.95;0.77;;;;;;;;;;6128794;23;20006;-80
2022/05/14 00:33:36;;;;;;;2.17;1.35;;;;;;;;;;6128902;23;20383;-79
2022/05/14 00:36:02;;;;;;;0.90;0.90;;;;;;;;;;6128464;23;20394;-79
2022/05/14 00:38:28;;;;;;;0.35;0.35;;;;;;;;;;6128788;23;20002;-79
2022/05/14 00:40:59;;;;;;;6.68;0.75;;;;;;;;;;6128642;23;20286;-78
2022/05/14 00:43:27;;;;;;;1.48;0.77;;;;;;;;;;6152299;23;20326;-79
2022/05/14 00:45:56;;;;;;;1.38;0.60;;;;;;;;;;6127824;23;20001;-79
2022/05/14 00:48:26;;;;;;;0.40;0.40;;;;;;;;;;6128614;23;20425;-79
2022/05/14 00:50:58;;;;;;;0.82;0.82;;;;;;;;;;6152163;23;20013;-79
2022/05/14 00:53:33;;;;;;;1.10;0.67;;;;;;;;;;6151553;23;20001;-79
2022/05/14 00:56:05;;;;;;;0.85;0.63;;;;;;;;;;6128539;23;20448;-79
2022/05/14 00:58:56;;;;;;;0.20;0.20;;;;;;;;;;6151680;23;20329;-79
2022/05/14 01:01:24;;;;;;;0.60;0.60;;;;;;;;;;6105174;23;20017;-78
2022/05/14 01:03:50;;;;;;;1.02;0.93;;;;;;;;;;6128517;23;20026;-79
2022/05/14 01:06:18;;;;;;;0.75;0.60;;;;;;;;;;6128659;23;20081;-79
2022/05/14 01:08:43;;;;;;;1.13;0.85;;;;;;;;;;6127581;23;20294;-78
2022/05/14 01:11:12;;;;;;;0.20;0.20;;;;;;;;;;6151250;23;20044;-77
2022/05/14 01:13:38;;;;;;;0.45;0.45;;;;;;;;;;6127228;23;20014;-77
2022/05/14 01:16:04;;;;;;;4.20;1.15;;;;;;;;;;6128411;23;20401;-78
2022/05/14 01:18:33;;;;;;;0.32;0.25;;;;;;;;;;6128311;23;20382;-78
2022/05/14 01:21:01;;;;;;;0.98;0.93;;;;;;;;;;6151880;23;20013;-77
2022/05/14 01:26:29;;;;;;;0.28;0.28;;;;;;;;;;6127812;23;20152;-78
2022/05/14 01:28:56;;;;;;;4.00;0.30;;;;;;;;;;6128004;23;20102;-76
2022/05/14 01:31:24;;;;;;;0.57;0.57;;;;;;;;;;6127221;23;20002;-77
2022/05/14 01:33:49;;;;;;;1.23;0.95;;;;;;;;;;6128576;23;20006;-84
2022/05/14 01:36:15;;;;;;;1.35;0.82;;;;;;;;;;6126301;23;20010;-84
2022/05/14 01:38:42;;;;;;;0.70;0.70;;;;;;;;;;6128269;23;20016;-87
2022/05/14 01:41:09;;;;;;;1.55;0.73;;;;;;;;;;6126973;23;19998;-86
2022/05/14 01:43:35;;;;;;;2.20;0.75;;;;;;;;;;6127012;23;20005;-86
2022/05/14 01:46:00;;;;;;;0.17;0.17;;;;;;;;;;6127736;23;20013;-85
2022/05/14 01:48:28;;;;;;;1.52;0.98;;;;;;;;;;6128079;23;20077;-87
2022/05/14 01:50:55;;;;;;;0.55;0.55;;;;;;;;;;6128173;23;20077;-86
2022/05/14 01:53:23;;;;;;;0.45;0.45;;;;;;;;;;6130687;23;20508;-86
2022/05/14 01:55:51;;;;;;;0.73;0.70;;;;;;;;;;6128365;23;20010;-86
2022/05/14 02:01:00;;;;;;;1.23;0.80;;;;;;;;;;6128100;23;20079;-87
2022/05/14 02:03:25;;;;;;;0.68;0.68;;;;;;;;;;6127948;23;20030;-85
2022/05/14 02:05:51;;;;;;;4.47;1.50;;;;;;;;;;6128427;23;20041;-85
2022/05/14 02:08:18;;;;;;;2.95;1.02;;;;;;;;;;6128365;23;20017;-85
2022/05/14 02:10:46;;;;;;;0.55;0.43;;;;;;;;;;6127661;23;20005;-83
2022/05/14 02:13:11;;;;;;;0.70;0.70;;;;;;;;;;6127465;23;20020;-84
2022/05/14 02:15:39;;;;;;;5.57;1.42;;;;;;;;;;6127727;23;20073;-82
2022/05/14 02:18:04;;;;;;;0.55;0.55;;;;;;;;;;6128017;23;20006;-81
2022/05/14 02:20:32;;;;;;;1.77;0.95;;;;;;;;;;6127873;23;20010;-84
2022/05/14 02:22:57;;;;;;;2.60;1.30;;;;;;;;;;6127460;23;20006;-80
2022/05/14 02:25:23;;;;;;;1.17;0.65;;;;;;;;;;6102704;23;20281;-85
2022/05/14 02:27:50;;;;;;;0.50;0.50;;;;;;;;;;6127670;23;20001;-86
2022/05/14 02:30:15;;;;;;;3.13;2.47;;;;;;;;;;6128756;23;20025;-86
2022/05/14 02:32:43;;;;;;;0.30;0.30;;;;;;;;;;6130274;23;20025;-87
2022/05/14 02:35:11;;;;;;;2.75;2.17;;;;;;;;;;6130260;23;20026;-86
2022/05/14 02:37:41;;;;;;;1.00;0.98;;;;;;;;;;6127771;23;20006;-84
2022/05/14 02:40:09;;;;;;;0.57;0.43;;;;;;;;;;6127631;23;20088;-82
2022/05/14 02:42:34;;;;;;;0.77;0.77;;;;;;;;;;6127024;23;20012;-83
2022/05/14 02:45:00;;;;;;;0.52;0.52;;;;;;;;;;6126278;23;20037;-84
2022/05/14 02:47:27;;;;;;;1.45;1.15;;;;;;;;;;6150804;23;20034;-83
2022/05/14 02:49:53;;;;;;;1.70;1.13;;;;;;;;;;6127458;23;20092;-84
2022/05/14 02:52:23;;;;;;;0.95;0.70;;;;;;;;;;6127160;23;20037;-84
2022/05/14 02:54:49;;;;;;;0.82;0.75;;;;;;;;;;6127956;23;20005;-84
2022/05/14 02:57:17;;;;;;;0.35;0.35;;;;;;;;;;6126071;23;20060;-84
2022/05/14 02:59:43;;;;;;;0.55;0.52;;;;;;;;;;6130156;23;20006;-83
2022/05/14 03:02:08;;;;;;;0.40;0.40;;;;;;;;;;6130251;23;20287;-83
2022/05/14 03:04:37;;;;;;;0.65;0.65;;;;;;;;;;6154552;23;19997;-83
2022/05/14 03:07:06;;;;;;;0.80;0.75;;;;;;;;;;6130771;23;20025;-83
2022/05/14 03:09:33;;;;;;;5.32;0.50;;;;;;;;;;6154021;23;20037;-81
2022/05/14 03:12:01;;;;;;;0.75;0.75;;;;;;;;;;6129510;23;20006;-85
2022/05/14 03:14:27;;;;;;;1.45;1.35;;;;;;;;;;6129368;23;20006;-82
2022/05/14 03:16:53;;;;;;;0.38;0.38;;;;;;;;;;6130366;23;20006;-84
2022/05/14 03:19:18;;;;;;;0.70;0.63;;;;;;;;;;6154050;23;20105;-84
2022/05/14 03:21:47;;;;;;;1.58;0.77;;;;;;;;;;6130241;23;20338;-82
2022/05/14 03:24:23;;;;;;;1.35;1.00;;;;;;;;;;6128942;23;20314;-84
2022/05/14 03:26:48;;;;;;;0.80;0.80;;;;;;;;;;6130567;23;19998;-78
2022/05/14 03:29:21;;;;;;;0.57;0.57;;;;;;;;;;6130515;23;20412;-84
2022/05/14 03:31:47;;;;;;;0.93;0.57;;;;;;;;;;6129583;23;20006;-83
2022/05/14 03:34:12;;;;;;;0.52;0.52;;;;;;;;;;6130806;23;20541;-86
2022/05/14 03:36:41;;;;;;;3.92;0.80;;;;;;;;;;6133933;23;20025;-84
2022/05/14 03:39:06;;;;;;;0.82;0.82;;;;;;;;;;6131841;23;20405;-86
2022/05/14 03:41:33;;;;;;;9.10;1.38;;;;;;;;;;6130608;23;20033;-85
2022/05/14 03:43:58;;;;;;;1.40;0.50;;;;;;;;;;6130432;23;20006;-83
2022/05/14 03:46:23;;;;;;;0.35;0.30;;;;;;;;;;6129719;23;20024;-85
2022/05/14 03:48:51;;;;;;;1.85;0.57;;;;;;;;;;6131071;23;20313;-82
2022/05/14 03:51:16;;;;;;;1.15;1.05;;;;;;;;;;6130306;23;20433;-82
2022/05/14 03:53:44;;;;;;;0.30;0.30;;;;;;;;;;6130178;23;20001;-82
2022/05/14 03:56:12;;;;;;;0.73;0.73;;;;;;;;;;6129532;23;20001;-81
2022/05/14 03:58:40;;;;;;;0.82;0.75;;;;;;;;;;6130198;23;20006;-84
2022/05/14 04:01:05;;;;;;;0.10;0.10;;;;;;;;;;6130617;23;20081;-84
2022/05/14 04:03:35;;;;;;;0.10;0.10;;;;;;;;;;6128472;23;20045;-85
2022/05/14 04:06:06;;;;;;;0.30;0.30;;;;;;;;;;6130456;23;20002;-82
2022/05/14 04:08:35;;;;;;;0.30;0.30;;;;;;;;;;6130347;23;20013;-85
2022/05/14 04:11:02;;;;;;;6.18;0.82;;;;;;;;;;6127803;23;20009;-85
2022/05/14 04:13:30;;;;;;;0.30;0.13;;;;;;;;;;6128761;23;20010;-85
2022/05/14 04:15:56;;;;;;;0.38;0.38;;;;;;;;;;6128929;23;20010;-84
2022/05/14 04:18:24;;;;;;;0.68;0.63;;;;;;;;;;6128221;23;20006;-81
2022/05/14 04:20:58;;;;;;;0.70;0.70;;;;;;;;;;6126222;23;20048;-83
2022/05/14 04:23:28;;;;;;;0.75;0.75;;;;;;;;;;6132443;23;20318;-85
2022/05/14 04:25:54;;;;;;;1.58;0.82;;;;;;;;;;6132692;23;20001;-83
2022/05/14 04:28:20;;;;;;;0.20;0.20;;;;;;;;;;6135630;23;20002;-87
2022/05/14 04:30:46;;;;;;;0.77;0.25;;;;;;;;;;6129886;23;20386;-84
2022/05/14 04:33:15;;;;;;;0.28;0.28;;;;;;;;;;6152383;23;20012;-85
2022/05/14 04:35:40;;;;;;;0.52;0.50;;;;;;;;;;6127520;23;20034;-85
2022/05/14 04:38:06;;;;;;;0.80;0.80;;;;;;;;;;6129077;23;20014;-87
2022/05/14 04:40:34;;;;;;;6.30;1.00;;;;;;;;;;6128666;23;20067;-80
2022/05/14 04:43:00;;;;;;;0.20;0.20;;;;;;;;;;6128864;23;20298;-85
2022/05/14 04:45:29;;;;;;;1.00;0.73;;;;;;;;;;6127617;23;19998;-83
2022/05/14 04:47:54;;;;;;;0.30;0.30;;;;;;;;;;6127498;23;20002;-87
2022/05/14 04:50:19;;;;;;;0.00;0.00;;;;;;;;;;6127899;23;20010;-83
2022/05/14 04:52:47;;;;;;;0.40;0.40;;;;;;;;;;6128680;23;20010;-84
2022/05/14 04:55:13;;;;;;;0.40;0.40;;;;;;;;;;6152482;23;20036;-87
2022/05/14 04:57:43;;;;;;;0.10;0.10;;;;;;;;;;6128573;23;20416;-84
2022/05/14 05:00:15;;;;;;;0.25;0.25;;;;;;;;;;6128540;23;20006;-82
2022/05/14 05:05:26;;;;;;;0.10;0.10;;;;;;;;;;6148562;23;20312;-81
2022/05/14 05:07:52;;;;;;;0.77;0.77;;;;;;;;;;6128164;23;20033;-85
2022/05/14 05:10:20;;;;;;;2.55;1.15;;;;;;;;;;6151013;23;19998;-86
2022/05/14 05:12:47;;;;;;;0.73;0.73;;;;;;;;;;6127861;23;20279;-86
2022/05/14 05:15:13;;;;;;;0.68;0.50;;;;;;;;;;6128267;23;20029;-82
2022/05/14 05:17:38;;;;;;;0.35;0.30;;;;;;;;;;6127992;23;20394;-86
2022/05/14 05:20:04;;;;;;;13.45;0.70;;;;;;;;;;6128294;23;20044;-83
2022/05/14 05:22:30;;;;;;;0.93;0.90;;;;;;;;;;6130756;23;20390;-82
2022/05/14 05:24:57;;;;;;;0.32;0.32;;;;;;;;;;6128542;23;20012;-85
2022/05/14 05:27:23;;;;;;;2.70;1.88;;;;;;;;;;6127485;23;20005;-83
2022/05/14 05:29:48;;;;;;;3.33;1.25;;;;;;;;;;6128042;23;20485;-83
2022/05/14 05:32:16;;;;;;;0.98;0.75;;;;;;;;;;6128093;23;20002;-82
2022/05/14 05:34:47;;;;;;;0.30;0.30;;;;;;;;;;6127025;23;20002;-83
2022/05/14 05:37:12;;;;;;;0.93;0.85;;;;;;;;;;6125915;23;20006;-89
2022/05/14 05:39:37;;;;;;;0.40;0.40;;;;;;;;;;6128076;23;20006;-86
2022/05/14 05:42:03;;;;;;;0.85;0.57;;;;;;;;;;6127741;23;20081;-82
2022/05/14 05:44:29;;;;;;;3.03;1.52;;;;;;;;;;6128064;23;20001;-82
2022/05/14 05:46:54;;;;;;;0.30;0.30;;;;;;;;;;6127959;23;20006;-84
2022/05/14 05:49:21;;;;;;;0.30;0.30;;;;;;;;;;6128209;23;20024;-81
2022/05/14 05:51:46;;;;;;;0.30;0.20;;;;;;;;;;6127546;23;20009;-83
2022/05/14 05:57:00;;;;;;;0.10;0.10;;;;;;;;;;6127614;23;20013;-86
2022/05/14 05:59:31;;;;;;;0.28;0.28;;;;;;;;;;6127884;23;20013;-85
2022/05/14 06:01:56;;;;;;;0.75;0.70;;;;;;;;;;6129041;23;20018;-84
2022/05/14 06:04:22;;;;;;;0.10;0.10;;;;;;;;;;6127577;23;20420;-84
2022/05/14 06:06:50;;;;;;;0.30;0.25;;;;;;;;;;6127120;23;20021;-85
2022/05/14 06:09:21;;;;;;;0.30;0.30;;;;;;;;;;6127992;23;20012;-86
2022/05/14 06:11:50;;;;;;;0.63;0.63;;;;;;;;;;6154815;23;20009;-86
2022/05/14 06:14:15;;;;;;;1.33;1.23;;;;;;;;;;6128343;23;20306;-88
2022/05/14 06:16:41;;;;;;;0.20;0.20;;;;;;;;;;6133170;23;20017;-91
2022/05/14 06:19:07;;;;;;;0.75;0.75;;;;;;;;;;6128208;23;20016;-89
2022/05/14 06:21:33;;;;;;;0.93;0.73;;;;;;;;;;6127100;23;20010;-90
2022/05/14 06:23:58;;;;;;;2.10;1.20;;;;;;;;;;6129085;23;20069;-86
2022/05/14 06:26:24;;;;;;;0.43;0.43;;;;;;;;;;6126836;23;20032;-89
2022/05/14 06:28:49;;;;;;;0.20;0.20;;;;;;;;;;6125930;23;20017;-88
2022/05/14 06:31:16;;;;;;;9.63;2.17;;;;;;;;;;6127777;23;20294;-89
2022/05/14 06:33:45;;;;;;;1.55;1.10;;;;;;;;;;6127455;23;20021;-89
2022/05/14 06:36:13;;;;;;;0.28;0.28;;;;;;;;;;6125971;23;20029;-90
2022/05/14 06:38:39;;;;;;;0.50;0.50;;;;;;;;;;6128028;23;20279;-88
2022/05/14 06:41:07;;;;;;;2.20;0.90;;;;;;;;;;6127095;23;20008;-85
2022/05/14 06:43:35;;;;;;;0.28;0.28;;;;;;;;;;6126546;23;20009;-87
2022/05/14 06:46:01;;;;;;;0.68;0.45;;;;;;;;;;6127507;23;20016;-90
2022/05/14 06:48:27;;;;;;;1.42;0.45;;;;;;;;;;6125893;23;20002;-87
2022/05/14 06:50:55;;;;;;;1.55;1.20;;;;;;;;;;6126691;23;20006;-88
2022/05/14 06:53:22;;;;;;;0.85;0.85;;;;;;;;;;6126550;23;20009;-85
2022/05/14 06:55:52;;;;;;;0.30;0.30;;;;;;;;;;6128637;23;20081;-87
2022/05/14 06:58:21;;;;;;;0.95;0.95;;;;;;;;;;6126937;23;20009;-85
2022/05/14 07:00:49;;;;;;;0.32;0.32;;;;;;;;;;6126793;23;20358;-82
2022/05/14 07:08:43;;;;;;;0.50;0.50;;;;;;;;;;6127572;23;20089;-85
2022/05/14 07:11:12;;;;;;;0.95;0.93;;;;;;;;;;6126308;23;20006;-83
2022/05/14 07:13:38;;;;;;;1.42;1.13;;;;;;;;;;6124854;23;20006;-78
2022/05/14 07:16:03;;;;;;;0.88;0.55;;;;;;;;;;6125873;23;20374;-84
2022/05/14 07:18:29;;;;;;;1.45;0.65;;;;;;;;;;6126988;23;20029;-84
2022/05/14 07:20:59;;;;;;;1.08;0.52;;;;;;;;;;6127691;23;20372;-85
2022/05/14 07:23:29;;;;;;;0.32;0.32;;;;;;;;;;6127416;23;20465;-83
2022/05/14 07:25:54;;;;;;;1.08;0.75;;;;;;;;;;6126296;23;20002;-84
2022/05/14 07:28:20;;;;;;;1.05;0.88;;;;;;;;;;6127018;23;20306;-82
2022/05/14 07:30:45;;;;;;;0.88;0.85;;;;;;;;;;6126382;23;20061;-85
2022/05/14 07:33:11;;;;;;;0.85;0.57;;;;;;;;;;6127133;23;20002;-86
2022/05/14 07:35:37;;;;;;;0.75;0.55;;;;;;;;;;6127375;23;20013;-86
2022/05/14 07:38:03;;;;;;;2.05;0.98;;;;;;;;;;6101863;23;20309;-82
2022/05/14 07:40:32;;;;;;;1.17;1.08;;;;;;;;;;6126630;23;20410;-87
2022/05/14 07:43:05;;;;;;;0.88;0.60;;;;;;;;;;6150498;23;20001;-85
2022/05/14 07:45:34;;;;;;;0.43;0.20;;;;;;;;;;6127313;23;20185;-85
2022/05/14 07:48:03;;;;;;;2.28;0.77;;;;;;;;;;6129218;23;20001;-83
2022/05/14 07:50:28;;;;;;;3.70;1.33;;;;;;;;;;6126771;23;20044;-87
2022/05/14 07:52:56;;;;;;;3.38;0.43;;;;;;;;;;6152488;23;20329;-83
2022/05/14 07:55:24;;;;;;;1.90;0.73;;;;;;;;;;6127949;23;20040;-80
2022/05/14 07:57:49;;;;;;;1.20;0.93;;;;;;;;;;6127685;23;20306;-86
2022/05/14 08:00:15;;;;;;;1.52;0.77;;;;;;;;;;6128289;23;20002;-86
2022/05/14 08:02:43;;;;;;;1.85;1.20;;;;;;;;;;6129244;23;20010;-84
2022/05/14 08:05:10;;;;;;;0.93;0.82;;;;;;;;;;6129833;23;20002;-86
2022/05/14 08:07:40;;;;;;;3.80;1.55;;;;;;;;;;6129132;23;20069;-86
2022/05/14 08:10:13;;;;;;;0.80;0.60;;;;;;;;;;6127424;23;20005;-87
2022/05/14 08:12:41;;;;;;;3.42;1.15;;;;;;;;;;6127930;23;20005;-87
2022/05/14 08:15:14;;;;;;;2.42;1.08;;;;;;;;;;6151904;23;20002;-87
2022/05/14 08:17:41;;;;;;;1.58;0.32;;;;;;;;;;6129051;23;20033;-86
2022/05/14 08:20:08;;;;;;;0.73;0.73;;;;;;;;;;6128838;23;20025;-80
2022/05/14 08:25:19;;;;;;;0.57;0.57;;;;;;;;;;6127993;23;20020;-84
2022/05/14 08:27:45;;;;;;;0.45;0.40;;;;;;;;;;6128607;23;20009;-86
2022/05/14 08:30:38;;;;;;;0.20;0.20;;;;;;;;;;6128619;23;20001;-86
2022/05/14 08:33:07;;;;;;;0.90;0.43;;;;;;;;;;6125758;23;20374;-87
2022/05/14 08:35:33;;;;;;;1.35;0.50;;;;;;;;;;6128404;23;20409;-86
2022/05/14 08:37:58;;;;;;;1.25;0.93;;;;;;;;;;6128628;23;20060;-86
2022/05/14 08:40:38;;;;;;;2.75;0.60;;;;;;;;;;6128569;23;20001;-83
2022/05/14 08:43:08;;;;;;;2.55;1.38;;;;;;;;;;6127562;23;20002;-81
2022/05/14 08:45:36;;;;;;;1.35;1.23;;;;;;;;;;6127863;23;20057;-88
2022/05/14 08:48:24;;;;;;;1.02;0.85;;;;;;;;;;6127058;23;20006;-85
2022/05/14 08:51:11;;;;;;;1.30;0.77;;;;;;;;;;6130597;23;19994;-82
2022/05/14 08:53:43;;;;;;;2.40;0.52;;;;;;;;;;6159445;23;20018;-86
2022/05/14 08:56:13;;;;;;;3.38;1.92;;;;;;;;;;6108523;23;20006;-89
2022/05/14 08:59:16;;;;;;;0.90;0.55;;;;;;;;;;6127487;23;20002;-82
2022/05/14 09:01:44;;;;;;;;;;;;;;;;;;6126426;23;20089;-85
2022/05/14 09:04:12;;;;;;;2.00;0.70;;;;;;;;;;6125526;23;19912;-76
2022/05/14 09:06:44;;;;;;;7.22;0.47;;;;;;;;;;6125699;23;20646;-81
2022/05/14 09:09:09;;;;;;;2.08;1.25;;;;;;;;;;6126124;23;20021;-83
2022/05/14 09:11:43;;;;;;;2.78;0.93;;;;;;;;;;6126058;23;20002;-84
2022/05/14 09:14:19;;;;;;;1.52;1.05;;;;;;;;;;6126718;23;20392;-84
2022/05/14 09:16:51;;;;;;;3.10;0.90;;;;;;;;;;6126205;23;20009;-87
2022/05/14 09:19:20;;;;;;;0.40;0.40;;;;;;;;;;6127546;23;20005;-85
2022/05/14 09:21:54;;;;;;;6.05;0.82;;;;;;;;;;6127538;23;20010;-86
2022/05/14 09:24:28;;;;;;;0.88;0.63;;;;;;;;;;6152146;23;20337;-85
2022/05/14 09:27:09;;;;;;;3.53;1.08;;;;;;;;;;6128534;23;20068;-82
2022/05/14 09:29:39;;;;;;;5.72;1.13;;;;;;;;;;6128319;23;20055;-85
2022/05/14 09:32:34;;;;;;;1.65;0.90;;;;;;;;;;6128175;23;20006;-85
2022/05/14 09:35:17;;;;;;;0.15;0.15;;;;;;;;;;6125310;23;20006;-80
2022/05/14 09:37:42;;;;;;;18.80;1.48;;;;;;;;;;6127468;23;20021;-76
2022/05/14 09:40:21;;;;;;;0.95;0.32;;;;;;;;;;6124503;23;20009;-74
2022/05/14 09:42:52;;;;;;;0.43;0.43;;;;;;;;;;6126112;23;20014;-79
2022/05/14 09:45:24;;;;;;;0.75;0.60;;;;;;;;;;6124339;23;20020;-78
2022/05/14 09:47:50;;;;;;;0.57;0.30;;;;;;;;;;6125003;23;20005;-77
2022/05/14 09:50:30;;;;;;;2.25;1.17;;;;;;;;;;6125188;23;20283;-78
2022/05/14 09:52:58;;;;;;;4.00;1.50;;;;;;;;;;6125474;23;20402;-78
2022/05/14 09:55:37;;;;;;;1.48;0.60;;;;;;;;;;6123824;23;20530;-79
2022/05/14 09:58:17;;;;;;;0.60;0.60;;;;;;;;;;6125013;23;20005;-77
2022/05/14 10:01:09;;;;;;;0.60;0.60;;;;;;;;;;6126570;23;20009;-77
2022/05/14 10:03:42;;;;;;;0.55;0.55;;;;;;;;;;6126478;23;20017;-76
2022/05/14 10:06:34;;;;;;;0.10;0.10;;;;;;;;;;6124642;23;19998;-77
2022/05/14 10:09:13;;;;;;;0.40;0.40;;;;;;;;;;6123562;23;20005;-76
2022/05/14 10:11:44;;;;;;;0.38;0.38;;;;;;;;;;6123579;23;20390;-76
2022/05/14 10:14:25;;;;;;;0.63;0.40;;;;;;;;;;6127735;23;20014;-77
2022/05/14 10:17:27;;;;;;;0.45;0.20;;;;;;;;;;6127829;23;20013;-76
2022/05/14 10:19:55;;;;;;;0.20;0.20;;;;;;;;;;6127843;23;20010;-77
2022/05/14 10:28:20;;;;;;;2.28;1.17;;;;;;;;;;6126798;23;20437;-79
2022/05/14 10:31:00;;;;;;;0.00;0.00;;;;;;;;;;6126605;23;20006;-79
2022/05/14 10:33:28;;;;;;;4.47;0.82;;;;;;;;;;6127939;23;20076;-78
2022/05/14 10:36:04;;;;;;;0.30;0.30;;;;;;;;;;6150820;23;20010;-76
2022/05/14 10:39:02;;;;;;;0.85;0.60;;;;;;;;;;6127789;23;20005;-77
2022/05/14 10:41:34;;;;;;;3.10;0.95;;;;;;;;;;6121320;23;20005;-77
2022/05/14 10:44:04;;;;;;;2.50;0.85;;;;;;;;;;6150726;23;20002;-77
2022/05/14 10:46:34;;;;;;;1.15;1.05;;;;;;;;;;6125603;23;20255;-76
2022/05/14 10:49:06;;;;;;;0.93;0.50;;;;;;;;;;6126495;23;20077;-77
2022/05/14 10:51:44;;;;;;;0.20;0.20;;;;;;;;;;6127682;23;20484;-77
2022/05/14 10:54:18;;;;;;;0.45;0.30;;;;;;;;;;6151101;23;20016;-76
2022/05/14 10:57:12;;;;;;;1.30;0.30;;;;;;;;;;6127605;23;20064;-76
2022/05/14 10:59:56;;;;;;;0.73;0.52;;;;;;;;;;6066963;23;20343;-77
2022/05/14 11:02:27;;;;;;;1.33;0.77;;;;;;;;;;6127631;23;20001;-77
2022/05/14 11:05:00;;;;;;;0.88;0.45;;;;;;;;;;6127822;23;20334;-77
2022/05/14 11:07:45;;;;;;;2.17;0.82;;;;;;;;;;6126742;23;20002;-77
2022/05/14 11:10:20;;;;;;;1.60;1.17;;;;;;;;;;6127732;23;20002;-77
2022/05/14 11:13:03;;;;;;;3.70;1.52;;;;;;;;;;6123014;23;20324;-76
2022/05/14 11:15:39;;;;;;;3.10;1.13;;;;;;;;;;6146628;23;20129;-77
2022/05/14 11:18:15;;;;;;;0.90;0.38;;;;;;;;;;6123634;23;20006;-76
2022/05/14 11:20:55;;;;;;;0.40;0.40;;;;;;;;;;6125201;23;20073;-76
2022/05/14 11:23:23;;;;;;;6.18;0.75;;;;;;;;;;6126563;23;20009;-76
2022/05/14 11:26:02;;;;;;;13.25;1.02;;;;;;;;;;6125599;23;20002;-76
2022/05/14 11:28:30;;;;;;;1.70;0.93;;;;;;;;;;6125275;23;20010;-75
2022/05/14 11:31:42;;;;;;;0.17;0.17;;;;;;;;;;6128497;23;20005;-77
2022/05/14 11:34:43;;;;;;;0.55;0.55;;;;;;;;;;6043279;23;20018;-76
2022/05/14 11:37:08;;;;;;;0.25;0.25;;;;;;;;;;6043728;23;20013;-76
2022/05/14 11:39:36;;;;;;;0.73;0.60;;;;;;;;;;6042731;23;20007;-76
2022/05/14 11:42:27;;;;;;;0.38;0.20;;;;;;;;;;6020544;23;20011;-77
2022/05/14 11:44:59;;;;;;;0.40;0.40;;;;;;;;;;6042874;23;20007;-77
2022/05/14 11:47:46;;;;;;;1.67;1.08;;;;;;;;;;6068314;23;20034;-78
2022/05/14 11:50:13;;;;;;;3.40;1.42;;;;;;;;;;6043683;23;20656;-77
2022/05/14 11:53:06;;;;;;;2.95;1.50;;;;;;;;;;6043649;23;20007;-75
2022/05/14 11:55:53;;;;;;;0.63;0.63;;;;;;;;;;6067942;23;20086;-77
2022/05/14 11:58:47;;;;;;;0.95;0.50;;;;;;;;;;6069245;23;20045;-77
2022/05/14 12:01:17;;;;;;;1.23;0.98;;;;;;;;;;6059944;23;20046;-78
2022/05/14 12:03:44;;;;;;;0.40;0.40;;;;;;;;;;6069017;23;21044;-77
2022/05/14 12:06:25;;;;;;;0.60;0.60;;;;;;;;;;6044929;23;20048;-76
2022/05/14 12:09:09;;;;;;;2.40;1.23;;;;;;;;;;6045205;23;20086;-75
2022/05/14 12:11:44;;;;;;;1.05;0.85;;;;;;;;;;6112470;23;20005;-78
2022/05/14 12:14:17;;;;;;;1.83;0.95;;;;;;;;;;6127960;23;20321;-75
2022/05/14 12:16:53;;;;;;;4.72;0.82;;;;;;;;;;6152116;23;20006;-79
2022/05/14 12:19:34;;;;;;;6.88;1.08;;;;;;;;;;6128137;23;20029;-77
2022/05/14 12:22:23;;;;;;;1.20;1.08;;;;;;;;;;6127844;23;20002;-79
2022/05/14 12:25:01;;;;;;;1.30;0.90;;;;;;;;;;6129054;23;20349;-79
2022/05/14 12:27:31;;;;;;;1.35;0.68;;;;;;;;;;6128266;23;20024;-78
2022/05/14 12:30:00;;;;;;;3.38;1.20;;;;;;;;;;6152266;23;20279;-80
2022/05/14 12:35:21;;;;;;;3.75;0.88;;;;;;;;;;6128279;23;20020;-79
2022/05/14 12:37:50;;;;;;;5.68;1.50;;;;;;;;;;6129155;23;20040;-81
2022/05/14 12:40:28;;;;;;;0.85;0.82;;;;;;;;;;6151922;23;20006;-78
2022/05/14 12:42:56;;;;;;;3.60;1.25;;;;;;;;;;6103478;23;20010;-80
2022/05/14 12:45:38;;;;;;;1.77;1.48;;;;;;;;;;6127860;23;20056;-80
2022/05/14 12:48:04;;;;;;;3.47;1.65;;;;;;;;;;6128987;23;20029;-79
2022/05/14 12:50:33;;;;;;;1.48;1.13;;;;;;;;;;6128960;23;20029;-80
2022/05/14 12:53:03;;;;;;;3.50;1.67;;;;;;;;;;6129038;23;20076;-80
2022/05/14 12:55:29;;;;;;;3.17;0.93;;;;;;;;;;6128878;23;20009;-81
2022/05/14 12:57:56;;;;;;;6.13;1.88;;;;;;;;;;6152481;23;20013;-80
2022/05/14 13:00:26;;;;;;;1.58;0.57;;;;;;;;;;6152250;23;20006;-80
2022/05/14 13:02:56;;;;;;;1.77;0.30;;;;;;;;;;6127742;23;20326;-80
2022/05/14 13:05:27;;;;;;;0.93;0.77;;;;;;;;;;6125727;23;20418;-81
2022/05/14 13:08:16;;;;;;;18.00;2.78;;;;;;;;;;6128657;23;20005;-82
2022/05/14 13:10:51;;;;;;;1.65;1.20;;;;;;;;;;6126662;23;20290;-80
2022/05/14 13:13:19;;;;;;;9.90;1.73;;;;;;;;;;6127287;23;20013;-79
2022/05/14 13:15:53;;;;;;;1.13;1.02;;;;;;;;;;6125671;23;20064;-77
2022/05/14 13:18:24;;;;;;;0.85;0.80;;;;;;;;;;6125845;23;20061;-78
2022/05/14 13:21:03;;;;;;;1.83;1.08;;;;;;;;;;6127827;23;20033;-78
2022/05/14 13:23:32;;;;;;;0.70;0.55;;;;;;;;;;6103383;23;20084;-78
2022/05/14 13:26:10;;;;;;;1.20;0.82;;;;;;;;;;6126962;23;20309;-78
2022/05/14 13:28:40;;;;;;;4.15;1.08;;;;;;;;;;6128426;23;20005;-79
2022/05/14 13:31:19;;;;;;;0.77;0.77;;;;;;;;;;6151717;23;20001;-78
2022/05/14 13:37:07;;;;;;;0.75;0.40;;;;;;;;;;6126398;23;20002;-78
2022/05/14 13:37:07;;;;;;;0.75;0.73;;;;;;;;;;6126724;23;20006;-79
2022/05/14 13:39:36;;;;;;;3.38;1.55;;;;;;;;;;6128384;23;20016;-78
2022/05/14 13:42:02;;;;;;;1.95;1.25;;;;;;;;;;6126041;23;20346;-78
2022/05/14 13:44:30;;;;;;;1.63;1.00;;;;;;;;;;6150642;23;20009;-78
2022/05/14 13:46:57;;;;;;;0.55;0.52;;;;;;;;;;6151108;23;20073;-78
2022/05/14 13:49:25;;;;;;;1.45;0.85;;;;;;;;;;6128098;23;20471;-78
2022/05/14 13:51:55;;;;;;;0.40;0.40;;;;;;;;;;6126739;23;20017;-79
2022/05/14 13:54:40;;;;;;;0.80;0.70;;;;;;;;;;6127838;23;20002;-78
2022/05/14 13:57:11;;;;;;;2.28;1.10;;;;;;;;;;6126167;23;20692;-78
2022/05/14 13:59:39;;;;;;;1.63;1.00;;;;;;;;;;6127099;23;20010;-77
2022/05/14 14:02:08;;;;;;;1.48;0.63;;;;;;;;;;6128081;23;20005;-79
2022/05/14 14:04:35;;;;;;;1.25;1.02;;;;;;;;;;6127662;23;20342;-78
2022/05/14 14:07:05;;;;;;;3.40;1.10;;;;;;;;;;6151278;23;20002;-78
2022/05/14 14:09:31;;;;;;;1.60;1.02;;;;;;;;;;6127494;23;20006;-79
2022/05/14 14:11:57;;;;;;;1.27;0.98;;;;;;;;;;6127482;23;20033;-79
2022/05/14 14:14:22;;;;;;;2.78;0.73;;;;;;;;;;6126588;23;20604;-78
2022/05/14 14:16:50;;;;;;;0.77;0.70;;;;;;;;;;6126011;23;20002;-77
2022/05/14 14:19:16;;;;;;;0.50;0.50;;;;;;;;;;6127356;23;20130;-78
2022/05/14 14:21:42;;;;;;;3.35;1.80;;;;;;;;;;6127419;23;20549;-78
2022/05/14 14:24:11;;;;;;;2.92;0.98;;;;;;;;;;6127160;23;20449;-78
2022/05/14 14:26:38;;;;;;;0.40;0.40;;;;;;;;;;6127954;23;19994;-78
2022/05/14 14:29:04;;;;;;;0.52;0.52;;;;;;;;;;6126964;23;20061;-79
2022/05/14 14:31:32;;;;;;;0.17;0.17;;;;;;;;;;6127403;23;20010;-78
2022/05/14 14:34:00;;;;;;;0.95;0.68;;;;;;;;;;6127642;23;20421;-78
2022/05/14 14:36:26;;;;;;;0.47;0.43;;;;;;;;;;6126993;23;20006;-79
2022/05/14 14:38:51;;;;;;;2.70;0.70;;;;;;;;;;6125918;23;20318;-79
2022/05/14 14:41:18;;;;;;;0.73;0.50;;;;;;;;;;6126996;23;20001;-79
2022/05/14 14:43:45;;;;;;;0.40;0.40;;;;;;;;;;6126557;23;20006;-79
2022/05/14 14:46:13;;;;;;;2.45;1.08;;;;;;;;;;6127552;23;20017;-79
2022/05/14 14:48:39;;;;;;;1.70;1.20;;;;;;;;;;6127159;23;20433;-78
2022/05/14 14:51:10;;;;;;;1.20;0.50;;;;;;;;;;6127046;23;20006;-79
2022/05/14 14:53:36;;;;;;;0.60;0.50;;;;;;;;;;6127000;23;20033;-78
2022/05/14 14:56:01;;;;;;;0.60;0.60;;;;;;;;;;6127062;23;20034;-78
2022/05/14 14:58:27;;;;;;;0.45;0.45;;;;;;;;;;6127445;23;20353;-79
2022/05/14 15:00:52;;;;;;;2.97;0.70;;;;;;;;;;6126890;23;20040;-78
2022/05/14 15:03:31;;;;;;;1.23;0.93;;;;;;;;;;6126818;23;20014;-79
2022/05/14 15:05:58;;;;;;;1.20;0.95;;;;;;;;;;6127138;23;20084;-79
2022/05/14 15:08:30;;;;;;;0.52;0.52;;;;;;;;;;6127199;23;20006;-78
2022/05/14 15:10:56;;;;;;;1.25;1.08;;;;;;;;;;6127239;23;20010;-78
2022/05/14 15:13:25;;;;;;;0.55;0.55;;;;;;;;;;6125856;23;20312;-79
2022/05/14 15:15:50;;;;;;;2.40;1.15;;;;;;;;;;6126806;23;20011;-78
2022/05/14 15:18:16;;;;;;;3.72;0.70;;;;;;;;;;6125944;23;20454;-78
2022/05/14 15:20:41;;;;;;;0.20;0.20;;;;;;;;;;6125447;23;20006;-79
2022/05/14 15:23:07;;;;;;;0.43;0.30;;;;;;;;;;6127659;23;20006;-78
2022/05/14 15:25:33;;;;;;;0.88;0.75;;;;;;;;;;6127789;23;20025;-78
2022/05/14 15:27:58;;;;;;;0.63;0.63;;;;;;;;;;6127609;23;20342;-79
2022/05/14 15:30:26;;;;;;;2.22;1.23;;;;;;;;;;6127544;23;20323;-78
2022/05/14 15:32:51;;;;;;;0.52;0.52;;;;;;;;;;6149674;23;20006;-78